createdAt,value
2019-05-12T00:01:28.591Z,7.57
2019-05-12T00:04:18.857Z,7.43
2019-05-12T00:07:08.658Z,7.53
2019-05-12T00:09:58.137Z,7.27
2019-05-12T00:12:47.924Z,8.07
2019-05-12T00:15:35.346Z,8.87
2019-05-12T00:18:22.881Z,9.93
2019-05-12T00:21:10.581Z,10.17
2019-05-12T00:24:13.597Z,8.57
2019-05-12T00:27:03.931Z,8.23
2019-05-12T00:29:51.610Z,10.57
2019-05-12T00:32:39.252Z,8.67
2019-05-12T00:35:28.484Z,9.67
2019-05-12T00:38:17.724Z,9.17
2019-05-12T00:41:05.859Z,9.20
2019-05-12T00:43:53.566Z,11.50
2019-05-12T00:46:41.144Z,9.60
2019-05-12T00:49:29.269Z,9.63
2019-05-12T00:52:18.651Z,10.50
2019-05-12T00:55:07.914Z,12.30
2019-05-12T00:57:58.096Z,10.50
2019-05-12T01:00:48.112Z,11.97
2019-05-12T01:03:35.030Z,11.13
2019-05-12T01:06:22.677Z,11.47
2019-05-12T01:09:10.557Z,10.67
2019-05-12T01:11:58.915Z,14.33
2019-05-12T01:14:47.828Z,13.53
2019-05-12T01:17:35.413Z,12.47
2019-05-12T01:20:22.788Z,12.67
2019-05-12T01:23:10.451Z,13.50
2019-05-12T01:25:58.696Z,15.50
2019-05-12T01:28:48.755Z,16.57
2019-05-12T01:31:41.890Z,16.03
2019-05-12T01:34:29.951Z,17.27
2019-05-12T01:37:23.590Z,15.17
2019-05-12T01:40:11.629Z,14.90
2019-05-12T01:42:59.195Z,15.37
2019-05-12T01:45:48.270Z,17.77
2019-05-12T01:48:37.753Z,19.93
2019-05-12T01:51:28.331Z,16.47
2019-05-12T01:54:18.696Z,17.00
2019-05-12T01:57:07.971Z,18.57
2019-05-12T01:59:55.012Z,15.67
2019-05-12T02:02:42.706Z,16.87
2019-05-12T02:05:30.679Z,17.67
2019-05-12T02:08:23.722Z,19.63
2019-05-12T02:11:29.064Z,15.60
2019-05-12T02:14:18.277Z,19.90
2019-05-12T02:17:06.103Z,20.43
2019-05-12T02:19:53.540Z,25.53
2019-05-12T02:22:41.259Z,22.77
2019-05-12T02:25:29.085Z,20.53
2019-05-12T02:28:18.010Z,19.33
2019-05-12T02:31:09.251Z,21.73
2019-05-12T02:33:55.448Z,17.90
2019-05-12T02:36:44.883Z,18.73
2019-05-12T02:39:35.304Z,19.57
2019-05-12T02:42:24.429Z,28.13
2019-05-12T02:45:15.119Z,23.67
2019-05-12T02:48:00.777Z,17.70
2019-05-12T02:50:48.347Z,15.57
2019-05-12T02:53:36.466Z,17.30
2019-05-12T02:56:26.102Z,20.70
2019-05-12T02:59:16.267Z,18.97
2019-05-12T03:02:05.436Z,15.90
2019-05-12T03:04:55.006Z,13.20
2019-05-12T03:07:44.930Z,14.13
2019-05-12T03:10:35.404Z,15.90
2019-05-12T03:13:25.340Z,13.47
2019-05-12T03:16:14.917Z,16.40
2019-05-12T03:19:05.004Z,20.60
2019-05-12T03:21:56.202Z,16.23
2019-05-12T03:24:45.820Z,17.77
2019-05-12T03:27:35.059Z,19.80
2019-05-12T03:30:29.227Z,19.63
2019-05-12T03:33:19.002Z,25.67
2019-05-12T03:36:08.954Z,22.87
2019-05-12T03:38:55.204Z,23.10
2019-05-12T03:41:46.336Z,24.37
2019-05-12T03:44:35.195Z,28.67
2019-05-12T03:47:25.113Z,28.27
2019-05-12T03:50:15.257Z,29.07
2019-05-12T03:53:10.869Z,30.27
2019-05-12T03:56:04.112Z,30.87
2019-05-12T03:58:53.931Z,31.50
2019-05-12T04:01:44.812Z,35.67
2019-05-12T04:04:34.516Z,31.77
2019-05-12T04:07:24.372Z,33.47
2019-05-12T04:10:11.329Z,30.97
2019-05-12T04:13:05.483Z,32.27
2019-05-12T04:15:55.687Z,35.57
2019-05-12T04:18:45.219Z,28.37
2019-05-12T04:21:35.009Z,31.93
2019-05-12T04:24:24.922Z,33.70
2019-05-12T04:27:15.594Z,35.07
2019-05-12T04:30:05.958Z,30.90
2019-05-12T04:32:56.565Z,37.10
2019-05-12T04:35:50.964Z,33.37
2019-05-12T04:38:40.406Z,36.27
2019-05-12T04:41:35.421Z,32.67
2019-05-12T04:44:25.124Z,33.73
2019-05-12T04:47:16.233Z,31.97
2019-05-12T04:50:05.354Z,32.40
2019-05-12T04:52:56.193Z,29.20
2019-05-12T04:56:04.514Z,33.13
2019-05-12T04:58:36.807Z,35.03
2019-05-12T05:01:25.324Z,35.87
2019-05-12T05:04:17.401Z,38.60
2019-05-12T05:07:05.330Z,35.70
2019-05-12T05:09:55.159Z,35.10
2019-05-12T05:12:44.937Z,32.17
2019-05-12T05:15:38.001Z,37.13
2019-05-12T05:18:28.695Z,31.57
2019-05-12T05:21:20.770Z,27.83
2019-05-12T05:24:09.681Z,32.27
2019-05-12T05:27:04.272Z,33.47
2019-05-12T05:29:54.193Z,30.10
2019-05-12T05:32:41.376Z,30.27
2019-05-12T05:35:39.611Z,34.60
2019-05-12T05:38:29.316Z,28.60
2019-05-12T05:41:21.046Z,26.37
2019-05-12T05:44:08.887Z,25.60
2019-05-12T05:47:00.927Z,24.27
2019-05-12T05:49:53.978Z,26.43
2019-05-12T05:52:43.820Z,26.23
2019-05-12T05:55:35.771Z,22.03
2019-05-12T05:58:26.187Z,26.70
2019-05-12T06:01:18.452Z,22.67
2019-05-12T06:04:08.667Z,29.13
2019-05-12T06:06:58.738Z,24.10
2019-05-12T06:09:50.284Z,22.27
2019-05-12T06:12:40.322Z,20.83
2019-05-12T06:15:35.895Z,23.50
2019-05-12T06:18:23.823Z,20.27
2019-05-12T06:21:13.573Z,22.37
2019-05-12T06:24:08.864Z,24.93
2019-05-12T06:27:00.372Z,24.30
2019-05-12T06:29:46.188Z,23.03
2019-05-12T06:32:34.463Z,22.67
2019-05-12T06:35:37.301Z,24.43
2019-05-12T06:38:25.359Z,25.10
2019-05-12T06:41:20.941Z,27.40
2019-05-12T06:44:14.917Z,22.17
2019-05-12T06:47:08.145Z,19.00
2019-05-12T06:49:54.780Z,21.30
2019-05-12T06:52:44.585Z,22.67
2019-05-12T06:55:36.656Z,22.67
2019-05-12T06:58:27.662Z,18.53
2019-05-12T07:01:19.116Z,17.50
2019-05-12T07:04:07.660Z,18.90
2019-05-12T07:06:56.164Z,20.13
2019-05-12T07:09:53.624Z,14.73
2019-05-12T07:12:39.642Z,16.40
2019-05-12T07:15:23.372Z,18.77
2019-05-12T07:18:17.199Z,17.83
2019-05-12T07:21:04.112Z,15.50
2019-05-12T07:23:53.477Z,16.33
2019-05-12T07:26:41.480Z,17.30
2019-05-12T07:29:29.486Z,16.63
2019-05-12T07:32:21.764Z,19.23
2019-05-12T07:35:08.655Z,16.67
2019-05-12T07:37:57.864Z,15.53
2019-05-12T07:40:46.277Z,14.17
2019-05-12T07:43:35.329Z,14.23
2019-05-12T07:46:24.968Z,14.43
2019-05-12T07:49:14.125Z,14.90
2019-05-12T07:52:03.602Z,14.53
2019-05-12T07:54:55.719Z,10.40
2019-05-12T07:57:53.051Z,13.53
2019-05-12T08:00:31.061Z,10.90
2019-05-12T08:03:21.205Z,12.57
2019-05-12T08:06:08.923Z,10.87
2019-05-12T08:08:59.048Z,14.43
2019-05-12T08:11:46.324Z,12.53
2019-05-12T08:14:34.395Z,11.73
2019-05-12T08:17:24.646Z,8.70
2019-05-12T08:20:13.502Z,11.00
2019-05-12T08:23:05.847Z,10.77
2019-05-12T08:25:53.401Z,8.00
2019-05-12T08:28:41.170Z,9.03
2019-05-12T08:31:33.196Z,12.00
2019-05-12T08:34:18.512Z,9.23
2019-05-12T08:37:06.928Z,7.70
2019-05-12T08:40:03.140Z,7.67
2019-05-12T08:42:44.534Z,13.50
2019-05-12T08:45:37.078Z,7.70
2019-05-12T08:48:24.856Z,7.30
2019-05-12T08:51:14.534Z,9.30
2019-05-12T08:54:02.948Z,10.53
2019-05-12T08:56:51.142Z,6.83
2019-05-12T08:59:39.744Z,6.90
2019-05-12T09:02:27.878Z,6.73
2019-05-12T09:05:15.887Z,7.03
2019-05-12T09:08:03.986Z,7.40
2019-05-12T09:10:55.250Z,6.77
2019-05-12T09:13:43.360Z,6.23
2019-05-12T09:16:35.556Z,9.73
2019-05-12T09:19:26.931Z,8.10
2019-05-12T09:22:16.690Z,8.87
2019-05-12T09:25:06.375Z,8.23
2019-05-12T09:27:54.245Z,6.87
2019-05-12T09:30:47.600Z,7.07
2019-05-12T09:33:32.432Z,5.90
2019-05-12T09:36:21.782Z,6.43
2019-05-12T09:39:10.753Z,9.53
2019-05-12T09:41:59.333Z,7.87
2019-05-12T09:44:47.395Z,6.73
2019-05-12T09:47:36.606Z,6.40
2019-05-12T09:50:24.619Z,6.07
2019-05-12T09:53:14.399Z,7.37
2019-05-12T09:56:04.511Z,6.53
2019-05-12T09:59:01.673Z,9.20
2019-05-12T10:01:45.465Z,6.83
2019-05-12T10:04:33.073Z,7.93
2019-05-12T10:07:20.769Z,6.77
2019-05-12T10:10:09.407Z,6.40
2019-05-12T10:12:57.509Z,7.43
2019-05-12T10:15:45.239Z,6.87
2019-05-12T10:18:33.690Z,5.80
2019-05-12T10:21:23.776Z,6.07
2019-05-12T10:24:11.939Z,6.80
2019-05-12T10:26:59.744Z,5.83
2019-05-12T10:29:46.996Z,4.70
2019-05-12T10:32:34.651Z,8.73
2019-05-12T10:35:26.255Z,7.27
2019-05-12T10:38:13.758Z,7.87
2019-05-12T10:41:03.814Z,5.80
2019-05-12T10:43:55.919Z,5.20
2019-05-12T10:46:42.393Z,6.03
2019-05-12T10:49:33.680Z,7.20
2019-05-12T10:52:29.452Z,5.43
2019-05-12T10:55:20.467Z,8.47
2019-05-12T10:58:09.085Z,5.40
2019-05-12T11:00:58.848Z,8.37
2019-05-12T11:04:08.217Z,6.37
2019-05-12T11:07:05.990Z,6.37
2019-05-12T11:10:14.892Z,6.87
2019-05-12T11:13:05.801Z,8.77
2019-05-12T11:15:54.366Z,4.77
2019-05-12T11:18:48.394Z,4.30
2019-05-12T11:21:44.255Z,7.47
2019-05-12T11:24:33.722Z,5.40
2019-05-12T11:27:28.049Z,9.10
2019-05-12T11:34:08.455Z,5.10
2019-05-12T11:37:29.170Z,6.07
2019-05-12T11:40:23.959Z,5.77
2019-05-12T11:43:14.300Z,10.40
2019-05-12T11:46:08.619Z,7.37
2019-05-12T11:49:14.583Z,5.00
2019-05-12T11:52:10.801Z,6.47
2019-05-12T11:55:29.851Z,5.53
2019-05-12T11:58:26.211Z,4.50
2019-05-12T12:01:15.857Z,4.50
2019-05-12T12:04:24.054Z,6.50
2019-05-12T12:07:09.090Z,4.57
2019-05-12T12:10:23.536Z,5.50
2019-05-12T12:13:25.586Z,4.30
2019-05-12T12:16:11.424Z,7.00
2019-05-12T12:19:02.591Z,5.70
2019-05-12T12:21:50.142Z,7.33
2019-05-12T12:24:38.509Z,7.23
2019-05-12T12:27:26.634Z,6.90
2019-05-12T12:30:19.533Z,8.27
2019-05-12T12:33:10.921Z,9.17
2019-05-12T12:36:05.302Z,9.63
2019-05-12T12:38:53.524Z,6.40
2019-05-12T12:41:43.621Z,9.20
2019-05-12T12:44:34.105Z,7.13
2019-05-12T12:47:23.813Z,6.20
2019-05-12T12:50:13.312Z,5.50
2019-05-12T12:53:01.402Z,4.53
2019-05-12T12:56:04.164Z,6.87
2019-05-12T12:58:51.401Z,3.87
2019-05-12T13:01:46.533Z,4.73
2019-05-12T13:04:39.534Z,4.47
2019-05-12T13:07:24.359Z,3.20
2019-05-12T13:10:14.297Z,4.33
2019-05-12T13:13:04.472Z,4.20
2019-05-12T13:15:53.520Z,5.17
2019-05-12T13:18:43.487Z,2.43
2019-05-12T13:21:34.698Z,2.87
2019-05-12T13:24:22.486Z,4.23
2019-05-12T13:27:19.272Z,2.10
2019-05-12T13:30:16.328Z,3.93
2019-05-12T13:32:59.622Z,4.47
2019-05-12T13:35:55.747Z,3.37
2019-05-12T13:38:53.244Z,4.57
2019-05-12T13:41:45.368Z,2.37
2019-05-12T13:44:40.802Z,4.17
2019-05-12T13:47:34.025Z,3.83
2019-05-12T13:50:21.880Z,2.67
2019-05-12T13:53:13.695Z,2.33
2019-05-12T13:56:01.443Z,2.07
2019-05-12T13:58:49.590Z,3.00
2019-05-12T14:01:45.839Z,3.87
2019-05-12T14:04:33.658Z,2.83
2019-05-12T14:07:28.655Z,5.90
2019-05-12T14:10:25.671Z,1.93
2019-05-12T14:13:09.848Z,3.13
2019-05-12T14:15:58.584Z,2.63
2019-05-12T14:18:57.088Z,2.77
2019-05-12T14:21:54.143Z,1.90
2019-05-12T14:24:57.132Z,1.90
2019-05-12T14:27:53.405Z,2.53
2019-05-12T14:30:46.141Z,2.90
2019-05-12T14:33:39.337Z,1.73
2019-05-12T14:36:27.105Z,1.60
2019-05-12T14:39:14.685Z,2.13
2019-05-12T14:42:04.380Z,1.87
2019-05-12T14:44:54.078Z,1.50
2019-05-12T14:47:43.646Z,1.60
2019-05-12T14:50:33.647Z,2.50
2019-05-12T14:53:23.503Z,1.97
2019-05-12T14:56:10.653Z,1.67
2019-05-12T14:59:13.841Z,2.20
2019-05-12T15:05:54.739Z,2.70
2019-05-12T15:08:57.846Z,4.27
2019-05-12T15:12:19.971Z,1.40
2019-05-12T15:15:36.321Z,1.60
2019-05-12T15:22:01.600Z,1.80
2019-05-12T15:24:58.867Z,1.40
2019-05-12T15:28:08.458Z,1.30
2019-05-12T15:31:33.731Z,1.60
2019-05-12T15:38:38.018Z,1.93
2019-05-12T15:42:18.051Z,1.57
2019-05-12T15:45:16.228Z,4.43
2019-05-12T15:48:34.028Z,1.70
2019-05-12T15:51:24.258Z,1.60
2019-05-12T15:54:46.412Z,1.20
2019-05-12T15:57:38.624Z,1.67
2019-05-12T16:00:49.812Z,1.40
2019-05-12T16:04:11.707Z,1.10
2019-05-12T16:07:14.212Z,1.30
2019-05-12T16:13:53.745Z,1.00
2019-05-12T16:16:42.447Z,1.90
2019-05-12T16:23:28.034Z,1.50
2019-05-12T16:26:12.494Z,1.07
2019-05-12T16:29:03.178Z,2.67
2019-05-12T16:31:49.986Z,2.73
2019-05-12T16:34:44.833Z,3.77
2019-05-12T16:37:31.037Z,2.70
2019-05-12T16:40:17.297Z,1.33
2019-05-12T16:43:05.456Z,1.30
2019-05-12T16:45:53.885Z,1.27
2019-05-12T16:48:42.297Z,1.20
2019-05-12T16:51:33.253Z,1.67
2019-05-12T16:54:24.129Z,1.20
2019-05-12T16:57:18.268Z,1.30
2019-05-12T17:00:15.624Z,1.40
2019-05-12T17:03:09.080Z,2.77
2019-05-12T17:05:58.570Z,2.60
2019-05-12T17:08:51.536Z,2.50
2019-05-12T17:11:47.223Z,1.43
2019-05-12T17:14:36.614Z,2.10
2019-05-12T17:17:24.741Z,2.33
2019-05-12T17:20:17.499Z,2.40
2019-05-12T17:23:08.435Z,1.60
2019-05-12T17:26:00.852Z,1.67
2019-05-12T17:28:54.107Z,2.73
2019-05-12T17:31:47.294Z,3.03
2019-05-12T17:34:45.846Z,2.07
2019-05-12T17:37:39.808Z,3.07
2019-05-12T17:40:25.243Z,2.53
2019-05-12T17:43:15.136Z,3.90
2019-05-12T17:46:05.012Z,1.50
2019-05-12T17:48:53.465Z,1.50
2019-05-12T17:51:43.131Z,3.30
2019-05-12T17:54:34.165Z,1.73
2019-05-12T17:57:23.590Z,2.47
2019-05-12T18:00:14.000Z,3.30
2019-05-12T18:03:17.498Z,2.37
2019-05-12T18:05:52.974Z,2.10
2019-05-12T18:08:40.948Z,3.37
2019-05-12T18:11:28.900Z,2.73
2019-05-12T18:14:16.410Z,2.17
2019-05-12T18:17:08.672Z,2.73
2019-05-12T18:19:59.011Z,3.60
2019-05-12T18:22:45.183Z,1.83
2019-05-12T18:25:32.321Z,2.20
2019-05-12T18:28:21.719Z,3.43
2019-05-12T18:31:09.816Z,2.93
2019-05-12T18:33:57.553Z,4.03
2019-05-12T18:36:49.000Z,4.83
2019-05-12T18:39:36.939Z,2.10
2019-05-12T18:42:26.495Z,2.33
2019-05-12T18:45:17.867Z,2.90
2019-05-12T18:48:08.337Z,3.57
2019-05-12T18:50:53.597Z,2.20
2019-05-12T18:53:43.689Z,2.37
2019-05-12T18:56:33.470Z,2.40
2019-05-12T18:59:21.098Z,3.67
2019-05-12T19:02:14.569Z,2.60
2019-05-12T19:05:06.794Z,4.00
2019-05-12T19:08:19.902Z,4.30
2019-05-12T19:11:18.900Z,3.27
2019-05-12T19:13:58.049Z,2.53
2019-05-12T19:16:53.810Z,2.83
2019-05-12T19:19:45.949Z,6.30
2019-05-12T19:22:33.529Z,2.07
2019-05-12T19:25:20.235Z,2.30
2019-05-12T19:28:10.520Z,2.80
2019-05-12T19:31:00.819Z,2.33
2019-05-12T19:33:53.349Z,4.50
2019-05-12T19:36:44.845Z,3.33
2019-05-12T19:39:26.890Z,3.70
2019-05-12T19:42:28.949Z,2.13
2019-05-12T19:45:19.775Z,2.00
2019-05-12T19:48:22.069Z,2.23
2019-05-12T19:51:03.180Z,3.30
2019-05-12T19:53:50.992Z,2.10
2019-05-12T19:56:45.161Z,2.30
2019-05-12T19:59:34.205Z,2.47
2019-05-12T20:02:26.565Z,2.53
2019-05-12T20:05:28.533Z,3.23
2019-05-12T20:08:19.668Z,3.70
2019-05-12T20:11:20.138Z,3.47
2019-05-12T20:14:24.088Z,2.43
2019-05-12T20:17:17.782Z,4.37
2019-05-12T20:20:06.346Z,2.63
2019-05-12T20:22:58.272Z,2.40
2019-05-12T20:25:56.433Z,2.50
2019-05-12T20:29:00.037Z,2.97
2019-05-12T20:31:53.994Z,2.50
2019-05-12T20:34:51.576Z,2.60
2019-05-12T20:37:46.575Z,3.00
2019-05-12T20:40:37.253Z,2.00
2019-05-12T20:43:24.044Z,2.63
2019-05-12T20:46:15.838Z,2.87
2019-05-12T20:49:01.120Z,3.20
2019-05-12T20:51:55.213Z,2.23
2019-05-12T20:54:38.649Z,2.30
2019-05-12T20:57:26.737Z,3.53
2019-05-12T21:00:15.395Z,2.13
2019-05-12T21:03:04.416Z,2.97
2019-05-12T21:05:58.178Z,2.17
2019-05-12T21:08:46.635Z,4.37
2019-05-12T21:11:33.695Z,2.30
2019-05-12T21:14:20.663Z,3.13
2019-05-12T21:17:11.597Z,3.30
2019-05-12T21:19:59.484Z,2.07
2019-05-12T21:22:47.660Z,2.17
2019-05-12T21:25:35.950Z,4.07
2019-05-12T21:28:24.079Z,2.20
2019-05-12T21:31:14.009Z,2.07
2019-05-12T21:34:03.825Z,1.87
2019-05-12T21:36:49.995Z,3.20
2019-05-12T21:39:40.656Z,2.67
2019-05-12T21:42:27.127Z,2.10
2019-05-12T21:45:14.870Z,3.10
2019-05-12T21:48:34.130Z,1.97
2019-05-12T21:51:29.273Z,2.83
2019-05-12T21:54:17.840Z,2.43
2019-05-12T21:57:05.682Z,2.30
2019-05-12T21:59:55.568Z,2.13
2019-05-12T22:02:42.691Z,4.90
2019-05-12T22:05:48.005Z,2.63
2019-05-12T22:08:23.110Z,1.80
2019-05-12T22:11:11.694Z,2.20
2019-05-12T22:14:00.385Z,2.60
2019-05-12T22:16:50.573Z,2.17
2019-05-12T22:19:38.289Z,2.50
2019-05-12T22:22:29.944Z,2.30
2019-05-12T22:25:16.174Z,2.30
2019-05-12T22:28:08.218Z,2.73
2019-05-12T22:30:54.222Z,2.17
2019-05-12T22:33:49.738Z,2.17
2019-05-12T22:36:33.529Z,2.47
2019-05-12T22:39:21.018Z,3.00
2019-05-12T22:42:11.506Z,2.47
2019-05-12T22:45:01.668Z,4.60
2019-05-12T22:47:49.261Z,3.37
2019-05-12T22:50:37.159Z,2.27
2019-05-12T22:53:29.738Z,2.27
2019-05-12T22:56:17.935Z,3.27
2019-05-12T22:59:04.558Z,2.33
2019-05-12T23:01:54.199Z,3.00
2019-05-12T23:04:43.965Z,4.77
2019-05-12T23:07:33.132Z,2.30
2019-05-12T23:10:21.068Z,1.87
2019-05-12T23:13:09.111Z,2.40
2019-05-12T23:15:57.052Z,3.00
2019-05-12T23:18:44.553Z,2.50
2019-05-12T23:21:32.551Z,2.17
2019-05-12T23:24:20.681Z,2.37
2019-05-12T23:27:09.063Z,2.93
2019-05-12T23:30:01.594Z,2.40
2019-05-12T23:32:51.537Z,4.20
2019-05-12T23:35:39.474Z,2.80
2019-05-12T23:38:25.308Z,2.70
2019-05-12T23:41:13.600Z,2.90
2019-05-12T23:44:01.246Z,2.53
2019-05-12T23:46:49.185Z,3.80
2019-05-12T23:49:37.279Z,2.33
2019-05-12T23:52:25.923Z,4.60
2019-05-12T23:55:14.054Z,3.50
2019-05-12T23:58:04.229Z,3.87
